Pagrindinis puslapis
METAR-TAF:

METAR-TAF

Oro uostai :

Kota Bharu, Malaizija

platuma: 06-10N, ilguma: 102-17E, Aukštis: 5 m

Dabartinis oras

Ataskaita buvo paskelbta 21 minutes, ne 20:00 UTC
Vėjas 3 kt nuo kintamojo kryptimis
Temperatūra 25°C
Drėgmė 89%
Slėgis 1008 hPa
Matomumas 10 km arba daugiau
Mažai debesys ne aukštis 2000 ft
Su prošvaistėmis ne aukštis 28000 ft

METAR: WMKC 202000Z VRB03KT 9999 FEW020 BKN280 25/23 Q1008

Laikas: 04:21 (20:21 UTC)

Prognozė

Ataskaita buvo paskelbta 3 valandos ir 21 minutes, ne 17:00 UTC
Prognozė galioja nuo 20 metu 18 UTC su 21 metu 18 UTC
Vėjas 4 kt nuo kintamojo kryptimis
Matomumas: 9000 m
Mažai debesys ne aukštis 2000 ft
Laikinai
nuo 21 metu 04 UTC su 21 metu 08 UTC
Matomumas: 8000 m
Mažai debesys ne aukštis 1000 ft
Mažai debesys ne aukštis 1700 ft, Liūtiniai kamuoliniai debesys.
perkūnija, lietus

TAF: WMKC 201700Z 2018/2118 VRB04KT 9000 FEW020 TEMPO 2104/2108 8000 -TSRA FEW010 FEW017CB

Orai ataskaitas ir orų prognozės (METAR, TAF).

turimą stotys yra geltonos ir raudonos taškus žemėlapyje.

Perkelti pele per norėdami pamatyti stoties vardą.

Tada spustelėkite, norėdami matyti oro stebėjimo ir prognozės.

Norėdami pakeisti žemėlapį: spustelėkite ant žalios mygtukų su juodo kryžiaus žemyn,; žalią mygtuką su brūkšneliu, jei norite nutolinti; arba žalių rodyklių gretimoms žemėlapius.


METAR-TAF: